sensor_id;sensor_type;location;lat;lon;timestamp;temperature;humidity
22682;DHT22;11508;50.856;4.380;2023-05-10T00:04:13;13.20;99.90
22682;DHT22;11508;50.856;4.380;2023-05-10T00:09:05;13.30;99.90
22682;DHT22;11508;50.856;4.380;2023-05-10T00:11:31;13.30;99.90
22682;DHT22;11508;50.856;4.380;2023-05-10T00:18:48;13.30;99.90
22682;DHT22;11508;50.856;4.380;2023-05-10T00:21:14;13.40;99.90
22682;DHT22;11508;50.856;4.380;2023-05-10T00:23:40;13.50;99.90
22682;DHT22;11508;50.856;4.380;2023-05-10T00:26:05;13.40;99.90
22682;DHT22;11508;50.856;4.380;2023-05-10T00:28:31;13.30;99.90
22682;DHT22;11508;50.856;4.380;2023-05-10T00:30:57;13.30;99.90
22682;DHT22;11508;50.856;4.380;2023-05-10T00:40:42;13.20;99.90
22682;DHT22;11508;50.856;4.380;2023-05-10T00:45:34;13.20;99.90
22682;DHT22;11508;50.856;4.380;2023-05-10T00:48:02;13.20;99.90
22682;DHT22;11508;50.856;4.380;2023-05-10T00:50:30;13.10;99.90
22682;DHT22;11508;50.856;4.380;2023-05-10T00:52:57;12.80;99.90
22682;DHT22;11508;50.856;4.380;2023-05-10T00:55:24;13.30;99.90
22682;DHT22;11508;50.856;4.380;2023-05-10T00:57:52;13.30;99.90
22682;DHT22;11508;50.856;4.380;2023-05-10T01:00:18;13.30;99.90
22682;DHT22;11508;50.856;4.380;2023-05-10T01:02:45;13.30;99.90
22682;DHT22;11508;50.856;4.380;2023-05-10T01:05:11;13.20;99.90
22682;DHT22;11508;50.856;4.380;2023-05-10T01:07:37;13.20;99.90
22682;DHT22;11508;50.856;4.380;2023-05-10T01:10:04;13.20;99.90
22682;DHT22;11508;50.856;4.380;2023-05-10T01:14:57;13.20;99.90
22682;DHT22;11508;50.856;4.380;2023-05-10T01:17:23;13.10;99.90
22682;DHT22;11508;50.856;4.380;2023-05-10T01:41:49;13.30;99.90
22682;DHT22;11508;50.856;4.380;2023-05-10T01:44:37;13.20;99.90
22682;DHT22;11508;50.856;4.380;2023-05-10T01:47:26;13.10;99.90
22682;DHT22;11508;50.856;4.380;2023-05-10T01:49:55;13.30;99.90
22682;DHT22;11508;50.856;4.380;2023-05-10T01:52:37;13.30;99.90
22682;DHT22;11508;50.856;4.380;2023-05-10T01:55:09;13.30;99.90
22682;DHT22;11508;50.856;4.380;2023-05-10T01:57:37;13.20;99.90
22682;DHT22;11508;50.856;4.380;2023-05-10T02:00:08;13.20;99.90
22682;DHT22;11508;50.856;4.380;2023-05-10T02:02:38;13.20;99.90
22682;DHT22;11508;50.856;4.380;2023-05-10T02:05:06;13.20;99.90
22682;DHT22;11508;50.856;4.380;2023-05-10T02:07:37;13.30;99.90
22682;DHT22;11508;50.856;4.380;2023-05-10T02:10:05;13.30;99.90
22682;DHT22;11508;50.856;4.380;2023-05-10T02:12:43;13.20;99.90
22682;DHT22;11508;50.856;4.380;2023-05-10T02:15:11;13.20;99.90
22682;DHT22;11508;50.856;4.380;2023-05-10T02:17:39;13.20;99.90
22682;DHT22;11508;50.856;4.380;2023-05-10T02:20:06;13.20;99.90
22682;DHT22;11508;50.856;4.380;2023-05-10T02:22:33;13.10;99.90
22682;DHT22;11508;50.856;4.380;2023-05-10T02:25:00;13.00;99.90
22682;DHT22;11508;50.856;4.380;2023-05-10T02:27:27;13.00;99.90
22682;DHT22;11508;50.856;4.380;2023-05-10T02:32:21;13.00;99.90
22682;DHT22;11508;50.856;4.380;2023-05-10T02:34:48;13.00;99.90
22682;DHT22;11508;50.856;4.380;2023-05-10T02:37:19;13.10;99.90
22682;DHT22;11508;50.856;4.380;2023-05-10T02:39:49;13.10;99.90
22682;DHT22;11508;50.856;4.380;2023-05-10T02:42:22;13.00;99.90
22682;DHT22;11508;50.856;4.380;2023-05-10T02:44:51;13.10;99.90
22682;DHT22;11508;50.856;4.380;2023-05-10T02:52:16;13.00;99.90
22682;DHT22;11508;50.856;4.380;2023-05-10T02:54:45;12.90;99.90
22682;DHT22;11508;50.856;4.380;2023-05-10T02:57:16;12.90;99.90
22682;DHT22;11508;50.856;4.380;2023-05-10T02:59:44;12.90;99.90
22682;DHT22;11508;50.856;4.380;2023-05-10T03:02:12;12.90;99.90
22682;DHT22;11508;50.856;4.380;2023-05-10T03:04:38;12.90;99.90
22682;DHT22;11508;50.856;4.380;2023-05-10T03:07:04;12.90;99.90
22682;DHT22;11508;50.856;4.380;2023-05-10T03:09:31;12.90;99.90
22682;DHT22;11508;50.856;4.380;2023-05-10T03:14:56;12.80;99.90
22682;DHT22;11508;50.856;4.380;2023-05-10T03:17:47;12.90;99.90
22682;DHT22;11508;50.856;4.380;2023-05-10T03:20:21;12.90;99.90
22682;DHT22;11508;50.856;4.380;2023-05-10T03:22:51;12.80;99.90
22682;DHT22;11508;50.856;4.380;2023-05-10T03:25:19;12.80;99.90
22682;DHT22;11508;50.856;4.380;2023-05-10T03:27:46;12.80;99.90
22682;DHT22;11508;50.856;4.380;2023-05-10T03:30:13;12.80;99.90
22682;DHT22;11508;50.856;4.380;2023-05-10T03:32:40;13.00;99.90
22682;DHT22;11508;50.856;4.380;2023-05-10T03:35:08;13.00;99.90
22682;DHT22;11508;50.856;4.380;2023-05-10T03:37:34;13.00;99.90
22682;DHT22;11508;50.856;4.380;2023-05-10T03:40:00;13.10;99.90
22682;DHT22;11508;50.856;4.380;2023-05-10T03:42:25;13.10;99.90
22682;DHT22;11508;50.856;4.380;2023-05-10T03:47:17;13.30;99.90
22682;DHT22;11508;50.856;4.380;2023-05-10T03:49:42;13.20;99.90
22682;DHT22;11508;50.856;4.380;2023-05-10T03:52:08;13.20;99.90
22682;DHT22;11508;50.856;4.380;2023-05-10T03:54:34;13.40;99.90
22682;DHT22;11508;50.856;4.380;2023-05-10T03:56:59;13.30;99.90
22682;DHT22;11508;50.856;4.380;2023-05-10T03:59:26;13.50;99.90
22682;DHT22;11508;50.856;4.380;2023-05-10T04:01:52;13.40;99.90
22682;DHT22;11508;50.856;4.380;2023-05-10T04:04:17;13.60;99.90
22682;DHT22;11508;50.856;4.380;2023-05-10T04:11:38;13.50;99.90
22682;DHT22;11508;50.856;4.380;2023-05-10T04:14:03;13.60;99.90
22682;DHT22;11508;50.856;4.380;2023-05-10T04:16:31;13.60;99.90
22682;DHT22;11508;50.856;4.380;2023-05-10T04:18:57;13.50;99.90
22682;DHT22;11508;50.856;4.380;2023-05-10T04:21:22;13.50;99.90
22682;DHT22;11508;50.856;4.380;2023-05-10T04:23:54;13.50;99.90
22682;DHT22;11508;50.856;4.380;2023-05-10T04:26:20;13.60;99.90
22682;DHT22;11508;50.856;4.380;2023-05-10T04:28:47;13.80;99.90
22682;DHT22;11508;50.856;4.380;2023-05-10T04:31:13;13.60;99.90
22682;DHT22;11508;50.856;4.380;2023-05-10T04:33:38;13.50;99.90
22682;DHT22;11508;50.856;4.380;2023-05-10T04:36:04;13.40;99.90
22682;DHT22;11508;50.856;4.380;2023-05-10T04:38:34;13.40;99.90
22682;DHT22;11508;50.856;4.380;2023-05-10T04:41:07;13.40;99.90
22682;DHT22;11508;50.856;4.380;2023-05-10T04:43:33;13.40;99.90
22682;DHT22;11508;50.856;4.380;2023-05-10T04:45:59;13.40;99.90
22682;DHT22;11508;50.856;4.380;2023-05-10T04:48:25;13.50;99.90
22682;DHT22;11508;50.856;4.380;2023-05-10T04:50:50;13.30;99.90
22682;DHT22;11508;50.856;4.380;2023-05-10T04:53:16;13.30;99.90
22682;DHT22;11508;50.856;4.380;2023-05-10T04:55:42;13.30;99.90
22682;DHT22;11508;50.856;4.380;2023-05-10T04:58:08;13.20;99.90
22682;DHT22;11508;50.856;4.380;2023-05-10T05:00:34;13.30;99.90
22682;DHT22;11508;50.856;4.380;2023-05-10T05:03:00;13.40;99.90
22682;DHT22;11508;50.856;4.380;2023-05-10T05:05:25;13.40;99.90
22682;DHT22;11508;50.856;4.380;2023-05-10T05:07:51;13.50;99.90
22682;DHT22;11508;50.856;4.380;2023-05-10T05:10:17;13.70;99.90
22682;DHT22;11508;50.856;4.380;2023-05-10T05:12:42;13.70;99.90
22682;DHT22;11508;50.856;4.380;2023-05-10T05:15:08;13.80;99.90
22682;DHT22;11508;50.856;4.380;2023-05-10T05:17:35;13.90;99.90
22682;DHT22;11508;50.856;4.380;2023-05-10T05:20:01;13.90;99.90
22682;DHT22;11508;50.856;4.380;2023-05-10T05:22:27;13.80;99.90
22682;DHT22;11508;50.856;4.380;2023-05-10T05:24:57;13.70;99.90
22682;DHT22;11508;50.856;4.380;2023-05-10T05:27:24;13.60;99.90
22682;DHT22;11508;50.856;4.380;2023-05-10T05:29:57;13.70;99.90
22682;DHT22;11508;50.856;4.380;2023-05-10T05:32:24;13.80;99.90
22682;DHT22;11508;50.856;4.380;2023-05-10T05:34:50;13.70;99.90
22682;DHT22;11508;50.856;4.380;2023-05-10T05:37:19;13.50;99.90
22682;DHT22;11508;50.856;4.380;2023-05-10T05:39:46;13.50;99.90
22682;DHT22;11508;50.856;4.380;2023-05-10T05:42:13;13.40;99.90
22682;DHT22;11508;50.856;4.380;2023-05-10T05:47:06;13.00;99.90
22682;DHT22;11508;50.856;4.380;2023-05-10T05:49:32;12.90;99.90
22682;DHT22;11508;50.856;4.380;2023-05-10T05:52:02;12.90;99.90
22682;DHT22;11508;50.856;4.380;2023-05-10T05:54:27;13.00;99.90
22682;DHT22;11508;50.856;4.380;2023-05-10T05:56:57;13.10;99.90
22682;DHT22;11508;50.856;4.380;2023-05-10T05:59:24;13.00;99.90
22682;DHT22;11508;50.856;4.380;2023-05-10T06:01:49;13.10;99.90
22682;DHT22;11508;50.856;4.380;2023-05-10T06:06:41;13.10;99.90
22682;DHT22;11508;50.856;4.380;2023-05-10T06:09:08;13.40;99.90
22682;DHT22;11508;50.856;4.380;2023-05-10T06:11:34;13.40;99.90
22682;DHT22;11508;50.856;4.380;2023-05-10T06:14:00;13.40;99.90
22682;DHT22;11508;50.856;4.380;2023-05-10T06:16:25;13.20;99.90
22682;DHT22;11508;50.856;4.380;2023-05-10T06:18:51;13.20;99.90
22682;DHT22;11508;50.856;4.380;2023-05-10T06:21:17;13.10;99.90
22682;DHT22;11508;50.856;4.380;2023-05-10T06:23:42;12.80;99.90
22682;DHT22;11508;50.856;4.380;2023-05-10T06:26:09;12.80;99.90
22682;DHT22;11508;50.856;4.380;2023-05-10T06:28:35;12.80;99.90
22682;DHT22;11508;50.856;4.380;2023-05-10T06:31:03;12.80;99.90
22682;DHT22;11508;50.856;4.380;2023-05-10T06:33:29;12.90;99.90
22682;DHT22;11508;50.856;4.380;2023-05-10T06:35:55;12.90;99.90
22682;DHT22;11508;50.856;4.380;2023-05-10T06:38:21;13.00;99.90
22682;DHT22;11508;50.856;4.380;2023-05-10T06:40:47;13.00;99.90
22682;DHT22;11508;50.856;4.380;2023-05-10T06:43:12;12.90;99.90
22682;DHT22;11508;50.856;4.380;2023-05-10T06:45:38;12.80;99.90
22682;DHT22;11508;50.856;4.380;2023-05-10T06:48:04;12.70;99.90
22682;DHT22;11508;50.856;4.380;2023-05-10T06:50:29;12.70;99.90
22682;DHT22;11508;50.856;4.380;2023-05-10T06:52:55;12.70;99.90
22682;DHT22;11508;50.856;4.380;2023-05-10T06:57:47;12.90;99.90
22682;DHT22;11508;50.856;4.380;2023-05-10T07:00:13;12.80;99.90
22682;DHT22;11508;50.856;4.380;2023-05-10T07:05:06;12.70;99.90
22682;DHT22;11508;50.856;4.380;2023-05-10T07:07:31;12.70;99.90
22682;DHT22;11508;50.856;4.380;2023-05-10T07:09:57;12.70;99.90
22682;DHT22;11508;50.856;4.380;2023-05-10T07:12:24;12.70;99.90
22682;DHT22;11508;50.856;4.380;2023-05-10T07:14:50;12.70;99.90
22682;DHT22;11508;50.856;4.380;2023-05-10T07:17:16;12.60;99.90
22682;DHT22;11508;50.856;4.380;2023-05-10T07:19:43;12.60;99.90
22682;DHT22;11508;50.856;4.380;2023-05-10T07:22:09;12.70;99.90
22682;DHT22;11508;50.856;4.380;2023-05-10T07:24:34;12.50;99.90
22682;DHT22;11508;50.856;4.380;2023-05-10T07:27:00;12.50;99.90
22682;DHT22;11508;50.856;4.380;2023-05-10T07:31:52;12.60;99.90
22682;DHT22;11508;50.856;4.380;2023-05-10T07:34:18;12.60;99.90
22682;DHT22;11508;50.856;4.380;2023-05-10T07:36:44;12.40;99.90
22682;DHT22;11508;50.856;4.380;2023-05-10T07:41:35;12.40;99.90
22682;DHT22;11508;50.856;4.380;2023-05-10T07:44:03;12.50;99.90
22682;DHT22;11508;50.856;4.380;2023-05-10T07:46:29;12.40;99.90
22682;DHT22;11508;50.856;4.380;2023-05-10T07:48:54;12.50;99.90
22682;DHT22;11508;50.856;4.380;2023-05-10T07:51:20;12.40;99.90
22682;DHT22;11508;50.856;4.380;2023-05-10T07:53:46;12.40;99.90
22682;DHT22;11508;50.856;4.380;2023-05-10T07:58:47;12.70;99.90
22682;DHT22;11508;50.856;4.380;2023-05-10T08:03:39;12.70;99.90
22682;DHT22;11508;50.856;4.380;2023-05-10T08:06:04;12.90;99.90
22682;DHT22;11508;50.856;4.380;2023-05-10T08:08:31;12.90;99.90
22682;DHT22;11508;50.856;4.380;2023-05-10T08:10:56;12.90;99.90
22682;DHT22;11508;50.856;4.380;2023-05-10T08:13:22;12.70;99.90
22682;DHT22;11508;50.856;4.380;2023-05-10T08:18:14;12.60;99.90
22682;DHT22;11508;50.856;4.380;2023-05-10T08:20:40;12.60;99.90
22682;DHT22;11508;50.856;4.380;2023-05-10T08:23:05;12.90;99.90
22682;DHT22;11508;50.856;4.380;2023-05-10T08:27:58;12.80;99.90
22682;DHT22;11508;50.856;4.380;2023-05-10T08:30:24;12.90;99.90
22682;DHT22;11508;50.856;4.380;2023-05-10T08:32:50;12.80;99.90
22682;DHT22;11508;50.856;4.380;2023-05-10T08:35:15;12.90;99.90
22682;DHT22;11508;50.856;4.380;2023-05-10T08:37:41;13.10;99.90
22682;DHT22;11508;50.856;4.380;2023-05-10T08:40:08;13.20;99.90
22682;DHT22;11508;50.856;4.380;2023-05-10T08:42:40;13.20;99.90
22682;DHT22;11508;50.856;4.380;2023-05-10T08:45:10;13.20;99.90
22682;DHT22;11508;50.856;4.380;2023-05-10T08:47:36;13.10;99.90
22682;DHT22;11508;50.856;4.380;2023-05-10T08:50:03;13.10;99.90
22682;DHT22;11508;50.856;4.380;2023-05-10T08:52:30;13.30;99.90
22682;DHT22;11508;50.856;4.380;2023-05-10T08:57:24;13.60;99.90
22682;DHT22;11508;50.856;4.380;2023-05-10T08:59:50;13.50;99.90
22682;DHT22;11508;50.856;4.380;2023-05-10T09:02:20;13.60;99.90
22682;DHT22;11508;50.856;4.380;2023-05-10T09:04:46;13.50;99.90
22682;DHT22;11508;50.856;4.380;2023-05-10T09:07:12;13.40;99.90
22682;DHT22;11508;50.856;4.380;2023-05-10T09:09:38;13.30;99.90
22682;DHT22;11508;50.856;4.380;2023-05-10T09:12:04;13.20;99.90
22682;DHT22;11508;50.856;4.380;2023-05-10T09:16:56;12.80;99.90
22682;DHT22;11508;50.856;4.380;2023-05-10T09:21:49;12.80;99.90
22682;DHT22;11508;50.856;4.380;2023-05-10T09:26:48;12.80;99.90
22682;DHT22;11508;50.856;4.380;2023-05-10T09:29:14;13.00;99.90
22682;DHT22;11508;50.856;4.380;2023-05-10T09:31:58;13.00;99.90
22682;DHT22;11508;50.856;4.380;2023-05-10T09:34:30;13.10;99.90
22682;DHT22;11508;50.856;4.380;2023-05-10T09:36:58;13.40;99.90
22682;DHT22;11508;50.856;4.380;2023-05-10T09:39:35;13.40;99.90
22682;DHT22;11508;50.856;4.380;2023-05-10T09:42:08;13.40;99.90
22682;DHT22;11508;50.856;4.380;2023-05-10T09:44:35;13.20;99.90
22682;DHT22;11508;50.856;4.380;2023-05-10T09:47:02;13.20;99.90
22682;DHT22;11508;50.856;4.380;2023-05-10T09:49:28;13.20;99.90
22682;DHT22;11508;50.856;4.380;2023-05-10T09:52:06;13.10;99.90
22682;DHT22;11508;50.856;4.380;2023-05-10T09:54:32;13.10;99.90
22682;DHT22;11508;50.856;4.380;2023-05-10T09:59:26;13.10;99.90
22682;DHT22;11508;50.856;4.380;2023-05-10T10:01:57;13.20;99.90
22682;DHT22;11508;50.856;4.380;2023-05-10T10:04:23;13.10;99.90
22682;DHT22;11508;50.856;4.380;2023-05-10T10:06:59;13.10;99.90
22682;DHT22;11508;50.856;4.380;2023-05-10T10:09:26;13.30;99.90
22682;DHT22;11508;50.856;4.380;2023-05-10T10:11:52;13.30;99.90
22682;DHT22;11508;50.856;4.380;2023-05-10T10:14:20;13.20;99.90
22682;DHT22;11508;50.856;4.380;2023-05-10T10:16:46;13.20;99.90
22682;DHT22;11508;50.856;4.380;2023-05-10T10:19:12;13.20;99.90
22682;DHT22;11508;50.856;4.380;2023-05-10T10:24:04;13.10;99.90
22682;DHT22;11508;50.856;4.380;2023-05-10T10:26:33;13.20;99.90
22682;DHT22;11508;50.856;4.380;2023-05-10T10:34:29;13.40;99.90
22682;DHT22;11508;50.856;4.380;2023-05-10T10:36:56;13.50;99.90
22682;DHT22;11508;50.856;4.380;2023-05-10T10:39:23;13.30;99.90
22682;DHT22;11508;50.856;4.380;2023-05-10T10:57:18;13.50;99.90
22682;DHT22;11508;50.856;4.380;2023-05-10T10:59:45;13.70;99.90
22682;DHT22;11508;50.856;4.380;2023-05-10T11:02:49;13.70;99.90
22682;DHT22;11508;50.856;4.380;2023-05-10T11:05:25;13.80;99.90
22682;DHT22;11508;50.856;4.380;2023-05-10T11:07:55;13.60;99.90
22682;DHT22;11508;50.856;4.380;2023-05-10T11:10:22;13.80;99.90
22682;DHT22;11508;50.856;4.380;2023-05-10T11:13:07;13.90;99.90
22682;DHT22;11508;50.856;4.380;2023-05-10T11:15:35;14.00;99.90
22682;DHT22;11508;50.856;4.380;2023-05-10T11:21:00;14.10;99.90
22682;DHT22;11508;50.856;4.380;2023-05-10T11:23:54;14.30;99.90
22682;DHT22;11508;50.856;4.380;2023-05-10T11:26:34;14.10;99.90
22682;DHT22;11508;50.856;4.380;2023-05-10T11:31:28;14.30;99.90
22682;DHT22;11508;50.856;4.380;2023-05-10T11:33:59;14.20;99.90
22682;DHT22;11508;50.856;4.380;2023-05-10T11:36:32;14.40;99.90
22682;DHT22;11508;50.856;4.380;2023-05-10T11:41:24;15.00;99.90
22682;DHT22;11508;50.856;4.380;2023-05-10T11:43:54;15.30;99.90
22682;DHT22;11508;50.856;4.380;2023-05-10T11:46:25;15.30;99.90
22682;DHT22;11508;50.856;4.380;2023-05-10T11:49:01;15.90;99.90
22682;DHT22;11508;50.856;4.380;2023-05-10T11:51:32;15.90;99.90
22682;DHT22;11508;50.856;4.380;2023-05-10T11:53:58;15.70;99.90
22682;DHT22;11508;50.856;4.380;2023-05-10T11:56:24;15.70;99.90
22682;DHT22;11508;50.856;4.380;2023-05-10T11:58:56;15.30;99.90
22682;DHT22;11508;50.856;4.380;2023-05-10T12:01:22;15.30;93.30
22682;DHT22;11508;50.856;4.380;2023-05-10T12:03:49;15.30;52.60
22682;DHT22;11508;50.856;4.380;2023-05-10T12:06:16;15.40;47.00
22682;DHT22;11508;50.856;4.380;2023-05-10T12:08:47;15.60;24.60
22682;DHT22;11508;50.856;4.380;2023-05-10T12:11:13;15.60;1.00
22682;DHT22;11508;50.856;4.380;2023-05-10T12:13:41;15.50;1.00
22682;DHT22;11508;50.856;4.380;2023-05-10T12:16:28;15.70;1.00
22682;DHT22;11508;50.856;4.380;2023-05-10T12:18:57;15.60;1.00
22682;DHT22;11508;50.856;4.380;2023-05-10T12:21:23;15.70;19.00
22682;DHT22;11508;50.856;4.380;2023-05-10T12:23:54;16.10;1.00
22682;DHT22;11508;50.856;4.380;2023-05-10T12:26:24;16.20;1.00
22682;DHT22;11508;50.856;4.380;2023-05-10T12:28:55;16.40;1.00
22682;DHT22;11508;50.856;4.380;2023-05-10T12:31:21;16.20;1.00
22682;DHT22;11508;50.856;4.380;2023-05-10T12:33:46;16.10;1.00
22682;DHT22;11508;50.856;4.380;2023-05-10T12:36:15;16.10;1.00
22682;DHT22;11508;50.856;4.380;2023-05-10T12:38:42;16.50;1.00
22682;DHT22;11508;50.856;4.380;2023-05-10T12:41:18;16.50;1.00
22682;DHT22;11508;50.856;4.380;2023-05-10T12:43:44;16.10;1.00
22682;DHT22;11508;50.856;4.380;2023-05-10T12:46:16;16.50;1.00
22682;DHT22;11508;50.856;4.380;2023-05-10T12:48:43;16.50;1.00
22682;DHT22;11508;50.856;4.380;2023-05-10T12:53:37;16.10;1.00
22682;DHT22;11508;50.856;4.380;2023-05-10T12:56:04;16.00;4.60
22682;DHT22;11508;50.856;4.380;2023-05-10T12:58:29;16.30;1.00
22682;DHT22;11508;50.856;4.380;2023-05-10T13:00:55;16.40;1.00
22682;DHT22;11508;50.856;4.380;2023-05-10T13:03:22;16.00;1.00
22682;DHT22;11508;50.856;4.380;2023-05-10T13:05:48;15.80;1.00
22682;DHT22;11508;50.856;4.380;2023-05-10T13:08:14;16.10;1.00
22682;DHT22;11508;50.856;4.380;2023-05-10T13:10:40;16.30;1.00
22682;DHT22;11508;50.856;4.380;2023-05-10T13:13:06;16.40;1.00
22682;DHT22;11508;50.856;4.380;2023-05-10T13:15:32;16.30;1.00
22682;DHT22;11508;50.856;4.380;2023-05-10T13:20:25;16.00;1.00
22682;DHT22;11508;50.856;4.380;2023-05-10T13:22:51;16.10;1.00
22682;DHT22;11508;50.856;4.380;2023-05-10T13:25:17;16.40;1.00
22682;DHT22;11508;50.856;4.380;2023-05-10T13:30:09;16.50;1.00
22682;DHT22;11508;50.856;4.380;2023-05-10T13:32:36;16.70;1.00
22682;DHT22;11508;50.856;4.380;2023-05-10T13:35:03;17.30;1.00
22682;DHT22;11508;50.856;4.380;2023-05-10T13:37:29;18.00;1.00
22682;DHT22;11508;50.856;4.380;2023-05-10T13:39:55;18.30;2.50
22682;DHT22;11508;50.856;4.380;2023-05-10T13:42:22;18.50;1.00
22682;DHT22;11508;50.856;4.380;2023-05-10T13:44:49;18.00;1.00
22682;DHT22;11508;50.856;4.380;2023-05-10T13:47:14;17.90;1.00
22682;DHT22;11508;50.856;4.380;2023-05-10T13:49:40;17.90;1.00
22682;DHT22;11508;50.856;4.380;2023-05-10T13:52:06;17.30;1.00
22682;DHT22;11508;50.856;4.380;2023-05-10T13:54:36;17.30;1.00
22682;DHT22;11508;50.856;4.380;2023-05-10T13:57:02;17.20;1.00
22682;DHT22;11508;50.856;4.380;2023-05-10T13:59:28;16.80;1.00
22682;DHT22;11508;50.856;4.380;2023-05-10T14:01:54;16.80;99.90
22682;DHT22;11508;50.856;4.380;2023-05-10T14:04:20;16.40;1.00
22682;DHT22;11508;50.856;4.380;2023-05-10T14:06:46;16.20;1.00
22682;DHT22;11508;50.856;4.380;2023-05-10T14:09:11;16.20;1.00
22682;DHT22;11508;50.856;4.380;2023-05-10T14:11:39;16.10;1.00
22682;DHT22;11508;50.856;4.380;2023-05-10T14:14:08;16.20;1.00
22682;DHT22;11508;50.856;4.380;2023-05-10T14:16:34;16.10;1.00
22682;DHT22;11508;50.856;4.380;2023-05-10T14:19:00;16.30;1.00
22682;DHT22;11508;50.856;4.380;2023-05-10T14:21:25;16.50;1.00
22682;DHT22;11508;50.856;4.380;2023-05-10T14:23:51;16.50;1.00
22682;DHT22;11508;50.856;4.380;2023-05-10T14:26:17;16.40;1.00
22682;DHT22;11508;50.856;4.380;2023-05-10T14:28:42;16.00;1.00
22682;DHT22;11508;50.856;4.380;2023-05-10T14:31:08;16.10;1.00
22682;DHT22;11508;50.856;4.380;2023-05-10T14:33:34;16.10;1.00
22682;DHT22;11508;50.856;4.380;2023-05-10T14:35:59;16.40;1.00
22682;DHT22;11508;50.856;4.380;2023-05-10T14:38:25;16.60;1.00
22682;DHT22;11508;50.856;4.380;2023-05-10T14:40:51;16.40;1.00
22682;DHT22;11508;50.856;4.380;2023-05-10T14:43:17;16.30;1.00
22682;DHT22;11508;50.856;4.380;2023-05-10T14:45:43;16.40;1.00
22682;DHT22;11508;50.856;4.380;2023-05-10T14:48:10;16.90;99.90
22682;DHT22;11508;50.856;4.380;2023-05-10T14:50:42;16.90;99.90
22682;DHT22;11508;50.856;4.380;2023-05-10T14:53:07;16.90;99.90
22682;DHT22;11508;50.856;4.380;2023-05-10T14:55:33;17.10;99.90
22682;DHT22;11508;50.856;4.380;2023-05-10T14:58:00;17.00;99.90
22682;DHT22;11508;50.856;4.380;2023-05-10T15:02:51;16.00;1.00
22682;DHT22;11508;50.856;4.380;2023-05-10T15:05:17;15.80;1.00
22682;DHT22;11508;50.856;4.380;2023-05-10T15:12:36;15.90;1.00
22682;DHT22;11508;50.856;4.380;2023-05-10T15:15:01;16.10;1.00
22682;DHT22;11508;50.856;4.380;2023-05-10T15:17:27;16.30;1.00
22682;DHT22;11508;50.856;4.380;2023-05-10T15:19:53;16.10;1.00
22682;DHT22;11508;50.856;4.380;2023-05-10T15:22:19;15.80;1.00
22682;DHT22;11508;50.856;4.380;2023-05-10T15:24:46;15.90;1.00
22682;DHT22;11508;50.856;4.380;2023-05-10T15:27:11;15.90;1.00
22682;DHT22;11508;50.856;4.380;2023-05-10T15:29:37;15.90;1.00
22682;DHT22;11508;50.856;4.380;2023-05-10T15:32:03;16.00;1.00
22682;DHT22;11508;50.856;4.380;2023-05-10T15:34:29;16.20;1.00
22682;DHT22;11508;50.856;4.380;2023-05-10T15:36:54;16.10;1.00
22682;DHT22;11508;50.856;4.380;2023-05-10T15:39:20;16.40;99.90
22682;DHT22;11508;50.856;4.380;2023-05-10T15:41:46;16.60;99.90
22682;DHT22;11508;50.856;4.380;2023-05-10T15:44:12;16.30;99.90
22682;DHT22;11508;50.856;4.380;2023-05-10T15:46:38;16.00;99.90
22682;DHT22;11508;50.856;4.380;2023-05-10T15:49:04;15.90;99.90
22682;DHT22;11508;50.856;4.380;2023-05-10T15:51:31;16.50;99.90
22682;DHT22;11508;50.856;4.380;2023-05-10T15:53:58;16.90;99.90
22682;DHT22;11508;50.856;4.380;2023-05-10T15:56:24;16.80;99.90
22682;DHT22;11508;50.856;4.380;2023-05-10T15:58:51;16.70;99.90
22682;DHT22;11508;50.856;4.380;2023-05-10T16:01:16;16.60;99.90
22682;DHT22;11508;50.856;4.380;2023-05-10T16:03:42;16.70;99.90
22682;DHT22;11508;50.856;4.380;2023-05-10T16:06:08;17.20;99.90
22682;DHT22;11508;50.856;4.380;2023-05-10T16:08:34;17.50;99.90
22682;DHT22;11508;50.856;4.380;2023-05-10T16:11:00;17.50;99.90
22682;DHT22;11508;50.856;4.380;2023-05-10T16:13:29;17.40;99.90
22682;DHT22;11508;50.856;4.380;2023-05-10T16:15:54;17.40;99.90
22682;DHT22;11508;50.856;4.380;2023-05-10T16:18:22;17.50;99.90
22682;DHT22;11508;50.856;4.380;2023-05-10T16:20:47;17.80;99.90
22682;DHT22;11508;50.856;4.380;2023-05-10T16:23:13;18.90;99.90
22682;DHT22;11508;50.856;4.380;2023-05-10T16:25:39;19.00;99.90
22682;DHT22;11508;50.856;4.380;2023-05-10T16:28:05;18.90;99.90
22682;DHT22;11508;50.856;4.380;2023-05-10T16:35:24;18.90;99.90
22682;DHT22;11508;50.856;4.380;2023-05-10T16:37:50;18.90;99.90
22682;DHT22;11508;50.856;4.380;2023-05-10T16:40:15;19.30;54.60
22682;DHT22;11508;50.856;4.380;2023-05-10T16:42:41;18.90;20.90
22682;DHT22;11508;50.856;4.380;2023-05-10T16:45:07;18.80;61.50
22682;DHT22;11508;50.856;4.380;2023-05-10T16:47:37;18.80;99.90
22682;DHT22;11508;50.856;4.380;2023-05-10T16:50:04;18.50;99.90
22682;DHT22;11508;50.856;4.380;2023-05-10T16:52:31;18.50;99.90
22682;DHT22;11508;50.856;4.380;2023-05-10T16:54:57;18.70;99.90
22682;DHT22;11508;50.856;4.380;2023-05-10T16:57:23;18.60;99.90
22682;DHT22;11508;50.856;4.380;2023-05-10T16:59:49;18.10;99.90
22682;DHT22;11508;50.856;4.380;2023-05-10T17:02:17;18.20;99.90
22682;DHT22;11508;50.856;4.380;2023-05-10T17:04:44;18.00;99.90
22682;DHT22;11508;50.856;4.380;2023-05-10T17:07:10;18.10;99.90
22682;DHT22;11508;50.856;4.380;2023-05-10T17:09:41;18.30;99.90
22682;DHT22;11508;50.856;4.380;2023-05-10T17:12:07;18.20;99.90
22682;DHT22;11508;50.856;4.380;2023-05-10T17:14:32;18.20;99.90
22682;DHT22;11508;50.856;4.380;2023-05-10T17:16:58;17.50;99.90
22682;DHT22;11508;50.856;4.380;2023-05-10T17:19:24;17.70;30.10
22682;DHT22;11508;50.856;4.380;2023-05-10T17:21:50;17.90;1.00
22682;DHT22;11508;50.856;4.380;2023-05-10T17:24:18;17.80;99.90
22682;DHT22;11508;50.856;4.380;2023-05-10T17:26:44;17.10;99.90
22682;DHT22;11508;50.856;4.380;2023-05-10T17:29:10;16.70;1.00
22682;DHT22;11508;50.856;4.380;2023-05-10T17:31:38;16.60;1.00
22682;DHT22;11508;50.856;4.380;2023-05-10T17:34:04;16.90;1.00
22682;DHT22;11508;50.856;4.380;2023-05-10T17:36:29;17.00;1.00
22682;DHT22;11508;50.856;4.380;2023-05-10T17:38:55;17.30;1.00
22682;DHT22;11508;50.856;4.380;2023-05-10T17:43:47;17.60;99.90
22682;DHT22;11508;50.856;4.380;2023-05-10T17:46:13;17.90;99.90
22682;DHT22;11508;50.856;4.380;2023-05-10T17:48:39;17.30;99.90
22682;DHT22;11508;50.856;4.380;2023-05-10T17:51:04;17.20;1.00
22682;DHT22;11508;50.856;4.380;2023-05-10T17:53:30;17.00;99.90
22682;DHT22;11508;50.856;4.380;2023-05-10T17:55:56;17.10;99.90
22682;DHT22;11508;50.856;4.380;2023-05-10T18:00:51;17.10;99.90
22682;DHT22;11508;50.856;4.380;2023-05-10T18:03:17;16.40;1.00
22682;DHT22;11508;50.856;4.380;2023-05-10T18:05:42;16.20;1.00
22682;DHT22;11508;50.856;4.380;2023-05-10T18:08:08;16.10;1.00
22682;DHT22;11508;50.856;4.380;2023-05-10T18:10:35;16.30;1.00